臺北飛航情報區 - 掃描席(區管/近場)

METAR RCTP 181430Z 21010KT 9999 FEW020 BKN200 29/27 Q1009 NOSIG RMK A2981(Z)=

站台狀態:Online
最後更新:2019-06-18 22:30:02